sensor_id;sensor_type;location;lat;lon;timestamp;temperature;humidity
65239;SHT30;51827;51.186;6.926;2023-05-10T00:00:00;22.20;59.01
65239;SHT30;51827;51.186;6.926;2023-05-10T00:01:00;22.20;59.00
65239;SHT30;51827;51.186;6.926;2023-05-10T00:02:01;22.18;59.03
65239;SHT30;51827;51.186;6.926;2023-05-10T00:03:01;22.17;59.01
65239;SHT30;51827;51.186;6.926;2023-05-10T00:04:01;22.18;58.98
65239;SHT30;51827;51.186;6.926;2023-05-10T00:05:01;22.20;59.00
65239;SHT30;51827;51.186;6.926;2023-05-10T00:06:01;22.18;58.99
65239;SHT30;51827;51.186;6.926;2023-05-10T00:07:02;22.18;59.02
65239;SHT30;51827;51.186;6.926;2023-05-10T00:08:02;22.17;59.01
65239;SHT30;51827;51.186;6.926;2023-05-10T00:09:02;22.17;58.99
65239;SHT30;51827;51.186;6.926;2023-05-10T00:10:02;22.18;58.99
65239;SHT30;51827;51.186;6.926;2023-05-10T00:11:02;22.17;58.97
65239;SHT30;51827;51.186;6.926;2023-05-10T00:12:03;22.17;58.97
65239;SHT30;51827;51.186;6.926;2023-05-10T00:13:03;22.17;58.99
65239;SHT30;51827;51.186;6.926;2023-05-10T00:14:03;22.15;58.97
65239;SHT30;51827;51.186;6.926;2023-05-10T00:15:03;22.17;59.00
65239;SHT30;51827;51.186;6.926;2023-05-10T00:16:04;22.18;58.99
65239;SHT30;51827;51.186;6.926;2023-05-10T00:17:04;22.17;59.02
65239;SHT30;51827;51.186;6.926;2023-05-10T00:18:04;22.17;58.95
65239;SHT30;51827;51.186;6.926;2023-05-10T00:19:04;22.15;58.99
65239;SHT30;51827;51.186;6.926;2023-05-10T00:20:05;22.15;58.94
65239;SHT30;51827;51.186;6.926;2023-05-10T00:21:05;22.15;58.95
65239;SHT30;51827;51.186;6.926;2023-05-10T00:22:05;22.17;58.93
65239;SHT30;51827;51.186;6.926;2023-05-10T00:23:05;22.12;58.94
65239;SHT30;51827;51.186;6.926;2023-05-10T00:24:06;22.15;58.93
65239;SHT30;51827;51.186;6.926;2023-05-10T00:25:06;22.15;58.92
65239;SHT30;51827;51.186;6.926;2023-05-10T00:26:06;22.15;58.93
65239;SHT30;51827;51.186;6.926;2023-05-10T00:27:07;22.17;58.92
65239;SHT30;51827;51.186;6.926;2023-05-10T00:28:07;22.15;58.95
65239;SHT30;51827;51.186;6.926;2023-05-10T00:29:07;22.14;58.95
65239;SHT30;51827;51.186;6.926;2023-05-10T00:30:07;22.14;58.90
65239;SHT30;51827;51.186;6.926;2023-05-10T00:31:08;22.14;58.88
65239;SHT30;51827;51.186;6.926;2023-05-10T00:32:08;22.14;58.92
65239;SHT30;51827;51.186;6.926;2023-05-10T00:33:08;22.15;58.86
65239;SHT30;51827;51.186;6.926;2023-05-10T00:34:08;22.15;58.86
65239;SHT30;51827;51.186;6.926;2023-05-10T00:35:08;22.15;58.92
65239;SHT30;51827;51.186;6.926;2023-05-10T00:36:08;22.14;58.85
65239;SHT30;51827;51.186;6.926;2023-05-10T00:37:08;22.14;58.92
65239;SHT30;51827;51.186;6.926;2023-05-10T00:38:09;22.15;58.92
65239;SHT30;51827;51.186;6.926;2023-05-10T00:39:09;22.15;58.89
65239;SHT30;51827;51.186;6.926;2023-05-10T00:40:09;22.15;58.92
65239;SHT30;51827;51.186;6.926;2023-05-10T00:41:09;22.14;58.91
65239;SHT30;51827;51.186;6.926;2023-05-10T00:42:09;22.14;58.90
65239;SHT30;51827;51.186;6.926;2023-05-10T00:43:10;22.14;58.85
65239;SHT30;51827;51.186;6.926;2023-05-10T00:44:10;22.12;58.85
65239;SHT30;51827;51.186;6.926;2023-05-10T00:45:10;22.11;58.88
65239;SHT30;51827;51.186;6.926;2023-05-10T00:46:10;22.14;58.87
65239;SHT30;51827;51.186;6.926;2023-05-10T00:47:10;22.14;58.88
65239;SHT30;51827;51.186;6.926;2023-05-10T00:48:10;22.12;58.90
65239;SHT30;51827;51.186;6.926;2023-05-10T00:49:11;22.12;58.88
65239;SHT30;51827;51.186;6.926;2023-05-10T00:50:11;22.12;58.88
65239;SHT30;51827;51.186;6.926;2023-05-10T00:51:11;22.14;58.86
65239;SHT30;51827;51.186;6.926;2023-05-10T00:52:12;22.11;58.86
65239;SHT30;51827;51.186;6.926;2023-05-10T00:53:12;22.12;58.87
65239;SHT30;51827;51.186;6.926;2023-05-10T00:54:14;22.14;58.88
65239;SHT30;51827;51.186;6.926;2023-05-10T00:55:14;22.11;58.85
65239;SHT30;51827;51.186;6.926;2023-05-10T00:56:14;22.12;58.87
65239;SHT30;51827;51.186;6.926;2023-05-10T00:57:15;22.11;58.87
65239;SHT30;51827;51.186;6.926;2023-05-10T00:58:15;22.12;58.89
65239;SHT30;51827;51.186;6.926;2023-05-10T00:59:16;22.10;58.84
65239;SHT30;51827;51.186;6.926;2023-05-10T01:00:16;22.11;58.86
65239;SHT30;51827;51.186;6.926;2023-05-10T01:01:17;22.10;58.87
65239;SHT30;51827;51.186;6.926;2023-05-10T01:02:17;22.14;58.87
65239;SHT30;51827;51.186;6.926;2023-05-10T01:03:17;22.12;58.85
65239;SHT30;51827;51.186;6.926;2023-05-10T01:04:18;22.11;58.83
65239;SHT30;51827;51.186;6.926;2023-05-10T01:05:18;22.10;58.83
65239;SHT30;51827;51.186;6.926;2023-05-10T01:06:18;22.10;58.88
65239;SHT30;51827;51.186;6.926;2023-05-10T01:07:18;22.11;58.85
65239;SHT30;51827;51.186;6.926;2023-05-10T01:08:18;22.11;58.86
65239;SHT30;51827;51.186;6.926;2023-05-10T01:09:19;22.11;58.83
65239;SHT30;51827;51.186;6.926;2023-05-10T01:10:20;22.08;58.85
65239;SHT30;51827;51.186;6.926;2023-05-10T01:11:20;22.12;58.83
65239;SHT30;51827;51.186;6.926;2023-05-10T01:12:20;22.11;58.83
65239;SHT30;51827;51.186;6.926;2023-05-10T01:13:33;22.10;58.80
65239;SHT30;51827;51.186;6.926;2023-05-10T01:14:34;22.11;58.84
65239;SHT30;51827;51.186;6.926;2023-05-10T01:15:34;22.10;58.82
65239;SHT30;51827;51.186;6.926;2023-05-10T01:16:36;22.11;58.84
65239;SHT30;51827;51.186;6.926;2023-05-10T01:17:37;22.10;58.85
65239;SHT30;51827;51.186;6.926;2023-05-10T01:18:38;22.10;58.83
65239;SHT30;51827;51.186;6.926;2023-05-10T01:19:39;22.11;58.80
65239;SHT30;51827;51.186;6.926;2023-05-10T01:20:40;22.11;58.81
65239;SHT30;51827;51.186;6.926;2023-05-10T01:21:44;22.08;58.82
65239;SHT30;51827;51.186;6.926;2023-05-10T01:27:49;22.10;58.80
65239;SHT30;51827;51.186;6.926;2023-05-10T01:31:35;22.08;58.81
65239;SHT30;51827;51.186;6.926;2023-05-10T01:35:26;22.10;58.80
65239;SHT30;51827;51.186;6.926;2023-05-10T01:36:30;22.08;58.80
65239;SHT30;51827;51.186;6.926;2023-05-10T01:37:33;22.08;58.77
65239;SHT30;51827;51.186;6.926;2023-05-10T01:42:17;22.08;58.74
65239;SHT30;51827;51.186;6.926;2023-05-10T01:43:21;22.08;58.80
65239;SHT30;51827;51.186;6.926;2023-05-10T01:44:42;22.10;58.77
65239;SHT30;51827;51.186;6.926;2023-05-10T01:45:59;22.07;58.81
65239;SHT30;51827;51.186;6.926;2023-05-10T01:47:25;22.07;58.74
65239;SHT30;51827;51.186;6.926;2023-05-10T01:48:21;22.07;58.80
65239;SHT30;51827;51.186;6.926;2023-05-10T01:49:26;22.07;58.79
65239;SHT30;51827;51.186;6.926;2023-05-10T01:50:28;22.08;58.78
65239;SHT30;51827;51.186;6.926;2023-05-10T01:51:31;22.08;58.78
65239;SHT30;51827;51.186;6.926;2023-05-10T01:52:40;22.05;58.77
65239;SHT30;51827;51.186;6.926;2023-05-10T01:53:41;22.05;58.76
65239;SHT30;51827;51.186;6.926;2023-05-10T01:54:43;22.07;58.78
65239;SHT30;51827;51.186;6.926;2023-05-10T01:55:48;22.08;58.79
65239;SHT30;51827;51.186;6.926;2023-05-10T01:56:50;22.07;58.78
65239;SHT30;51827;51.186;6.926;2023-05-10T01:58:03;22.07;58.76
65239;SHT30;51827;51.186;6.926;2023-05-10T01:59:05;22.05;58.74
65239;SHT30;51827;51.186;6.926;2023-05-10T02:00:07;22.07;58.75
65239;SHT30;51827;51.186;6.926;2023-05-10T02:01:08;22.08;58.76
65239;SHT30;51827;51.186;6.926;2023-05-10T02:02:09;22.07;58.73
65239;SHT30;51827;51.186;6.926;2023-05-10T02:03:10;22.07;58.74
65239;SHT30;51827;51.186;6.926;2023-05-10T02:04:10;22.07;58.75
65239;SHT30;51827;51.186;6.926;2023-05-10T02:05:13;22.07;58.74
65239;SHT30;51827;51.186;6.926;2023-05-10T02:06:14;22.05;58.70
65239;SHT30;51827;51.186;6.926;2023-05-10T02:07:15;22.05;58.69
65239;SHT30;51827;51.186;6.926;2023-05-10T02:08:15;22.07;58.70
65239;SHT30;51827;51.186;6.926;2023-05-10T02:09:17;22.07;58.70
65239;SHT30;51827;51.186;6.926;2023-05-10T02:10:18;22.07;58.70
65239;SHT30;51827;51.186;6.926;2023-05-10T02:11:18;22.04;58.69
65239;SHT30;51827;51.186;6.926;2023-05-10T02:12:19;22.05;58.73
65239;SHT30;51827;51.186;6.926;2023-05-10T02:13:20;22.07;58.71
65239;SHT30;51827;51.186;6.926;2023-05-10T02:14:21;22.04;58.67
65239;SHT30;51827;51.186;6.926;2023-05-10T02:15:22;22.01;58.72
65239;SHT30;51827;51.186;6.926;2023-05-10T02:16:24;22.05;58.65
65239;SHT30;51827;51.186;6.926;2023-05-10T02:17:24;22.02;58.68
65239;SHT30;51827;51.186;6.926;2023-05-10T02:18:25;22.07;58.67
65239;SHT30;51827;51.186;6.926;2023-05-10T02:19:26;22.05;58.70
65239;SHT30;51827;51.186;6.926;2023-05-10T02:20:28;22.04;58.70
65239;SHT30;51827;51.186;6.926;2023-05-10T02:21:29;22.02;58.68
65239;SHT30;51827;51.186;6.926;2023-05-10T02:22:30;22.05;58.68
65239;SHT30;51827;51.186;6.926;2023-05-10T02:23:31;22.07;58.65
65239;SHT30;51827;51.186;6.926;2023-05-10T02:24:32;22.05;58.65
65239;SHT30;51827;51.186;6.926;2023-05-10T02:25:33;22.04;58.67
65239;SHT30;51827;51.186;6.926;2023-05-10T02:26:34;22.05;58.65
65239;SHT30;51827;51.186;6.926;2023-05-10T02:27:34;22.04;58.65
65239;SHT30;51827;51.186;6.926;2023-05-10T02:28:36;22.05;58.63
65239;SHT30;51827;51.186;6.926;2023-05-10T02:29:37;22.07;58.70
65239;SHT30;51827;51.186;6.926;2023-05-10T02:30:37;22.02;58.68
65239;SHT30;51827;51.186;6.926;2023-05-10T02:31:38;22.05;58.69
65239;SHT30;51827;51.186;6.926;2023-05-10T02:32:38;22.04;58.65
65239;SHT30;51827;51.186;6.926;2023-05-10T02:33:38;22.02;58.67
65239;SHT30;51827;51.186;6.926;2023-05-10T02:34:39;22.01;58.62
65239;SHT30;51827;51.186;6.926;2023-05-10T02:35:40;22.05;58.65
65239;SHT30;51827;51.186;6.926;2023-05-10T02:36:40;22.04;58.68
65239;SHT30;51827;51.186;6.926;2023-05-10T02:37:41;22.04;58.61
65239;SHT30;51827;51.186;6.926;2023-05-10T02:38:41;22.04;58.58
65239;SHT30;51827;51.186;6.926;2023-05-10T02:39:43;22.02;58.58
65239;SHT30;51827;51.186;6.926;2023-05-10T02:40:44;22.05;58.65
65239;SHT30;51827;51.186;6.926;2023-05-10T02:41:44;22.02;58.60
65239;SHT30;51827;51.186;6.926;2023-05-10T02:42:45;22.04;58.61
65239;SHT30;51827;51.186;6.926;2023-05-10T02:43:47;22.02;58.57
65239;SHT30;51827;51.186;6.926;2023-05-10T02:44:50;22.01;58.59
65239;SHT30;51827;51.186;6.926;2023-05-10T02:45:50;22.02;58.57
65239;SHT30;51827;51.186;6.926;2023-05-10T02:46:51;22.02;58.57
65239;SHT30;51827;51.186;6.926;2023-05-10T02:47:51;22.01;58.55
65239;SHT30;51827;51.186;6.926;2023-05-10T02:48:51;22.04;58.58
65239;SHT30;51827;51.186;6.926;2023-05-10T02:49:51;22.01;58.57
65239;SHT30;51827;51.186;6.926;2023-05-10T02:50:52;22.02;58.58
65239;SHT30;51827;51.186;6.926;2023-05-10T02:51:55;22.04;58.54
65239;SHT30;51827;51.186;6.926;2023-05-10T02:52:59;22.02;58.55
65239;SHT30;51827;51.186;6.926;2023-05-10T02:54:18;22.02;58.54
65239;SHT30;51827;51.186;6.926;2023-05-10T02:55:21;22.01;58.56
65239;SHT30;51827;51.186;6.926;2023-05-10T02:56:28;22.01;58.53
65239;SHT30;51827;51.186;6.926;2023-05-10T02:57:31;22.00;58.51
65239;SHT30;51827;51.186;6.926;2023-05-10T02:58:31;22.01;58.52
65239;SHT30;51827;51.186;6.926;2023-05-10T02:59:32;22.00;58.55
65239;SHT30;51827;51.186;6.926;2023-05-10T03:00:32;22.01;58.57
65239;SHT30;51827;51.186;6.926;2023-05-10T03:01:32;22.00;58.54
65239;SHT30;51827;51.186;6.926;2023-05-10T03:02:32;22.00;58.56
65239;SHT30;51827;51.186;6.926;2023-05-10T03:03:33;22.01;58.53
65239;SHT30;51827;51.186;6.926;2023-05-10T03:04:33;22.00;58.56
65239;SHT30;51827;51.186;6.926;2023-05-10T03:05:33;22.02;58.53
65239;SHT30;51827;51.186;6.926;2023-05-10T03:06:33;22.00;58.55
65239;SHT30;51827;51.186;6.926;2023-05-10T03:07:33;22.01;58.55
65239;SHT30;51827;51.186;6.926;2023-05-10T03:08:33;22.01;58.56
65239;SHT30;51827;51.186;6.926;2023-05-10T03:09:34;22.00;58.52
65239;SHT30;51827;51.186;6.926;2023-05-10T03:10:36;22.02;58.55
65239;SHT30;51827;51.186;6.926;2023-05-10T03:11:39;22.01;58.51
65239;SHT30;51827;51.186;6.926;2023-05-10T03:12:57;22.00;58.55
65239;SHT30;51827;51.186;6.926;2023-05-10T03:14:07;22.01;58.50
65239;SHT30;51827;51.186;6.926;2023-05-10T03:16:13;21.98;58.56
65239;SHT30;51827;51.186;6.926;2023-05-10T03:17:20;22.00;58.51
65239;SHT30;51827;51.186;6.926;2023-05-10T03:18:22;22.00;58.51
65239;SHT30;51827;51.186;6.926;2023-05-10T03:19:27;21.98;58.53
65239;SHT30;51827;51.186;6.926;2023-05-10T03:20:38;22.01;58.48
65239;SHT30;51827;51.186;6.926;2023-05-10T03:21:39;22.00;58.50
65239;SHT30;51827;51.186;6.926;2023-05-10T03:22:44;22.00;58.48
65239;SHT30;51827;51.186;6.926;2023-05-10T03:23:50;22.00;58.46
65239;SHT30;51827;51.186;6.926;2023-05-10T03:24:51;22.01;58.48
65239;SHT30;51827;51.186;6.926;2023-05-10T03:25:53;22.02;58.48
65239;SHT30;51827;51.186;6.926;2023-05-10T03:26:55;22.01;58.48
65239;SHT30;51827;51.186;6.926;2023-05-10T03:27:55;22.00;58.47
65239;SHT30;51827;51.186;6.926;2023-05-10T03:28:56;21.98;58.45
65239;SHT30;51827;51.186;6.926;2023-05-10T03:29:57;22.00;58.42
65239;SHT30;51827;51.186;6.926;2023-05-10T03:30:57;22.01;58.43
65239;SHT30;51827;51.186;6.926;2023-05-10T03:31:58;21.98;58.46
65239;SHT30;51827;51.186;6.926;2023-05-10T03:33:03;21.98;58.47
65239;SHT30;51827;51.186;6.926;2023-05-10T03:34:04;21.98;58.45
65239;SHT30;51827;51.186;6.926;2023-05-10T03:35:10;22.01;58.47
65239;SHT30;51827;51.186;6.926;2023-05-10T03:36:11;21.98;58.46
65239;SHT30;51827;51.186;6.926;2023-05-10T03:37:11;22.01;58.46
65239;SHT30;51827;51.186;6.926;2023-05-10T03:38:11;22.00;58.44
65239;SHT30;51827;51.186;6.926;2023-05-10T03:39:12;21.98;58.38
65239;SHT30;51827;51.186;6.926;2023-05-10T03:40:12;22.01;58.41
65239;SHT30;51827;51.186;6.926;2023-05-10T03:41:12;21.98;58.45
65239;SHT30;51827;51.186;6.926;2023-05-10T03:42:12;21.97;58.44
65239;SHT30;51827;51.186;6.926;2023-05-10T03:43:12;21.98;58.41
65239;SHT30;51827;51.186;6.926;2023-05-10T03:44:12;21.97;58.39
65239;SHT30;51827;51.186;6.926;2023-05-10T03:45:13;22.00;58.38
65239;SHT30;51827;51.186;6.926;2023-05-10T03:46:13;22.00;58.39
65239;SHT30;51827;51.186;6.926;2023-05-10T03:47:13;21.98;58.34
65239;SHT30;51827;51.186;6.926;2023-05-10T03:48:13;21.97;58.36
65239;SHT30;51827;51.186;6.926;2023-05-10T03:49:13;22.00;58.36
65239;SHT30;51827;51.186;6.926;2023-05-10T03:50:13;21.98;58.40
65239;SHT30;51827;51.186;6.926;2023-05-10T03:51:14;21.98;58.39
65239;SHT30;51827;51.186;6.926;2023-05-10T03:52:14;21.98;58.40
65239;SHT30;51827;51.186;6.926;2023-05-10T03:53:14;21.97;58.40
65239;SHT30;51827;51.186;6.926;2023-05-10T03:54:14;21.97;58.43
65239;SHT30;51827;51.186;6.926;2023-05-10T03:55:15;21.97;58.41
65239;SHT30;51827;51.186;6.926;2023-05-10T03:56:15;22.00;58.36
65239;SHT30;51827;51.186;6.926;2023-05-10T03:57:15;22.00;58.42
65239;SHT30;51827;51.186;6.926;2023-05-10T03:58:15;21.98;58.45
65239;SHT30;51827;51.186;6.926;2023-05-10T03:59:15;21.97;58.50
65239;SHT30;51827;51.186;6.926;2023-05-10T04:00:16;21.96;58.47
65239;SHT30;51827;51.186;6.926;2023-05-10T04:01:16;21.97;58.51
65239;SHT30;51827;51.186;6.926;2023-05-10T04:02:16;21.96;58.50
65239;SHT30;51827;51.186;6.926;2023-05-10T04:03:16;21.98;58.51
65239;SHT30;51827;51.186;6.926;2023-05-10T04:04:16;21.97;58.56
65239;SHT30;51827;51.186;6.926;2023-05-10T04:05:16;21.96;58.56
65239;SHT30;51827;51.186;6.926;2023-05-10T04:06:17;21.96;58.55
65239;SHT30;51827;51.186;6.926;2023-05-10T04:07:17;21.97;58.55
65239;SHT30;51827;51.186;6.926;2023-05-10T04:08:17;21.97;58.50
65239;SHT30;51827;51.186;6.926;2023-05-10T04:09:17;21.96;58.59
65239;SHT30;51827;51.186;6.926;2023-05-10T04:10:17;21.96;58.61
65239;SHT30;51827;51.186;6.926;2023-05-10T04:11:17;21.97;58.62
65239;SHT30;51827;51.186;6.926;2023-05-10T04:12:18;21.94;58.65
65239;SHT30;51827;51.186;6.926;2023-05-10T04:13:18;21.98;58.69
65239;SHT30;51827;51.186;6.926;2023-05-10T04:14:18;21.97;58.69
65239;SHT30;51827;51.186;6.926;2023-05-10T04:15:18;21.97;58.66
65239;SHT30;51827;51.186;6.926;2023-05-10T04:16:18;21.94;58.69
65239;SHT30;51827;51.186;6.926;2023-05-10T04:17:18;21.96;58.64
65239;SHT30;51827;51.186;6.926;2023-05-10T04:18:18;21.94;58.66
65239;SHT30;51827;51.186;6.926;2023-05-10T04:19:19;21.96;58.61
65239;SHT30;51827;51.186;6.926;2023-05-10T04:20:19;21.96;58.62
65239;SHT30;51827;51.186;6.926;2023-05-10T04:21:19;21.96;58.62
65239;SHT30;51827;51.186;6.926;2023-05-10T04:22:19;21.94;58.63
65239;SHT30;51827;51.186;6.926;2023-05-10T04:23:19;21.98;58.71
65239;SHT30;51827;51.186;6.926;2023-05-10T04:24:20;21.97;58.89
65239;SHT30;51827;51.186;6.926;2023-05-10T04:25:20;21.96;58.85
65239;SHT30;51827;51.186;6.926;2023-05-10T04:26:20;21.94;58.84
65239;SHT30;51827;51.186;6.926;2023-05-10T04:27:20;21.96;58.83
65239;SHT30;51827;51.186;6.926;2023-05-10T04:28:20;21.97;58.77
65239;SHT30;51827;51.186;6.926;2023-05-10T04:29:20;21.96;58.73
65239;SHT30;51827;51.186;6.926;2023-05-10T04:30:21;21.97;58.77
65239;SHT30;51827;51.186;6.926;2023-05-10T04:31:21;21.96;58.80
65239;SHT30;51827;51.186;6.926;2023-05-10T04:32:21;21.96;58.74
65239;SHT30;51827;51.186;6.926;2023-05-10T04:33:21;21.97;58.75
65239;SHT30;51827;51.186;6.926;2023-05-10T04:34:21;21.97;58.70
65239;SHT30;51827;51.186;6.926;2023-05-10T04:35:21;21.96;58.67
65239;SHT30;51827;51.186;6.926;2023-05-10T04:36:22;21.94;58.70
65239;SHT30;51827;51.186;6.926;2023-05-10T04:37:22;21.94;58.64
65239;SHT30;51827;51.186;6.926;2023-05-10T04:38:22;21.97;58.71
65239;SHT30;51827;51.186;6.926;2023-05-10T04:39:22;21.96;58.67
65239;SHT30;51827;51.186;6.926;2023-05-10T04:40:22;21.96;58.70
65239;SHT30;51827;51.186;6.926;2023-05-10T04:41:22;21.96;58.71
65239;SHT30;51827;51.186;6.926;2023-05-10T04:42:22;21.96;58.64
65239;SHT30;51827;51.186;6.926;2023-05-10T04:43:23;21.94;58.73
65239;SHT30;51827;51.186;6.926;2023-05-10T04:44:23;21.94;58.77
65239;SHT30;51827;51.186;6.926;2023-05-10T04:45:23;21.94;58.80
65239;SHT30;51827;51.186;6.926;2023-05-10T04:46:23;21.96;58.83
65239;SHT30;51827;51.186;6.926;2023-05-10T04:47:23;21.96;58.88
65239;SHT30;51827;51.186;6.926;2023-05-10T04:48:23;21.98;58.82
65239;SHT30;51827;51.186;6.926;2023-05-10T04:49:24;21.96;58.75
65239;SHT30;51827;51.186;6.926;2023-05-10T04:50:24;21.96;58.76
65239;SHT30;51827;51.186;6.926;2023-05-10T04:51:24;21.96;58.77
65239;SHT30;51827;51.186;6.926;2023-05-10T04:52:24;21.94;58.81
65239;SHT30;51827;51.186;6.926;2023-05-10T04:53:24;21.97;58.79
65239;SHT30;51827;51.186;6.926;2023-05-10T04:54:24;21.96;58.83
65239;SHT30;51827;51.186;6.926;2023-05-10T04:55:25;21.93;58.86
65239;SHT30;51827;51.186;6.926;2023-05-10T04:56:25;21.96;58.87
65239;SHT30;51827;51.186;6.926;2023-05-10T04:57:25;21.94;58.86
65239;SHT30;51827;51.186;6.926;2023-05-10T04:58:25;21.96;58.86
65239;SHT30;51827;51.186;6.926;2023-05-10T04:59:25;21.94;58.80
65239;SHT30;51827;51.186;6.926;2023-05-10T05:00:25;21.96;58.77
65239;SHT30;51827;51.186;6.926;2023-05-10T05:01:25;21.94;58.77
65239;SHT30;51827;51.186;6.926;2023-05-10T05:02:26;21.96;58.81
65239;SHT30;51827;51.186;6.926;2023-05-10T05:03:26;21.93;58.80
65239;SHT30;51827;51.186;6.926;2023-05-10T05:04:26;21.94;58.81
65239;SHT30;51827;51.186;6.926;2023-05-10T05:05:26;21.94;58.82
65239;SHT30;51827;51.186;6.926;2023-05-10T05:06:26;21.94;58.76
65239;SHT30;51827;51.186;6.926;2023-05-10T05:07:26;21.96;58.77
65239;SHT30;51827;51.186;6.926;2023-05-10T05:08:27;21.94;58.78
65239;SHT30;51827;51.186;6.926;2023-05-10T05:09:27;21.94;58.77
65239;SHT30;51827;51.186;6.926;2023-05-10T05:10:27;21.96;58.75
65239;SHT30;51827;51.186;6.926;2023-05-10T05:11:27;21.96;58.75
65239;SHT30;51827;51.186;6.926;2023-05-10T05:12:27;21.96;58.73
65239;SHT30;51827;51.186;6.926;2023-05-10T05:13:27;21.93;58.70
65239;SHT30;51827;51.186;6.926;2023-05-10T05:14:28;21.93;58.75
65239;SHT30;51827;51.186;6.926;2023-05-10T05:15:28;21.96;58.72
65239;SHT30;51827;51.186;6.926;2023-05-10T05:16:30;21.93;58.69
65239;SHT30;51827;51.186;6.926;2023-05-10T05:17:30;21.93;58.74
65239;SHT30;51827;51.186;6.926;2023-05-10T05:18:30;21.94;58.74
65239;SHT30;51827;51.186;6.926;2023-05-10T05:19:31;21.97;58.68
65239;SHT30;51827;51.186;6.926;2023-05-10T05:20:34;21.93;58.71
65239;SHT30;51827;51.186;6.926;2023-05-10T05:21:34;21.94;58.69
65239;SHT30;51827;51.186;6.926;2023-05-10T05:22:35;21.91;58.70
65239;SHT30;51827;51.186;6.926;2023-05-10T05:23:35;21.94;58.61
65239;SHT30;51827;51.186;6.926;2023-05-10T05:24:35;21.93;58.66
65239;SHT30;51827;51.186;6.926;2023-05-10T05:25:36;21.93;58.66
65239;SHT30;51827;51.186;6.926;2023-05-10T05:26:36;21.94;58.66
65239;SHT30;51827;51.186;6.926;2023-05-10T05:27:36;21.93;58.64
65239;SHT30;51827;51.186;6.926;2023-05-10T05:28:37;21.94;58.66
65239;SHT30;51827;51.186;6.926;2023-05-10T05:29:37;21.94;58.61
65239;SHT30;51827;51.186;6.926;2023-05-10T05:30:37;21.96;58.60
65239;SHT30;51827;51.186;6.926;2023-05-10T05:31:37;21.93;58.64
65239;SHT30;51827;51.186;6.926;2023-05-10T05:32:37;21.93;58.61
65239;SHT30;51827;51.186;6.926;2023-05-10T05:33:37;21.93;58.58
65239;SHT30;51827;51.186;6.926;2023-05-10T05:34:38;21.93;58.58
65239;SHT30;51827;51.186;6.926;2023-05-10T05:35:38;21.93;58.55
65239;SHT30;51827;51.186;6.926;2023-05-10T05:36:38;21.93;58.53
65239;SHT30;51827;51.186;6.926;2023-05-10T05:37:38;21.96;58.56
65239;SHT30;51827;51.186;6.926;2023-05-10T05:38:38;21.94;58.58
65239;SHT30;51827;51.186;6.926;2023-05-10T05:39:38;21.93;58.53
65239;SHT30;51827;51.186;6.926;2023-05-10T05:40:39;21.93;58.57
65239;SHT30;51827;51.186;6.926;2023-05-10T05:41:39;21.93;58.56
65239;SHT30;51827;51.186;6.926;2023-05-10T05:42:39;21.96;58.53
65239;SHT30;51827;51.186;6.926;2023-05-10T05:43:39;21.94;58.54
65239;SHT30;51827;51.186;6.926;2023-05-10T05:44:39;21.94;58.53
65239;SHT30;51827;51.186;6.926;2023-05-10T05:45:39;21.93;58.56
65239;SHT30;51827;51.186;6.926;2023-05-10T05:46:40;21.93;58.52
65239;SHT30;51827;51.186;6.926;2023-05-10T05:47:40;21.91;58.50
65239;SHT30;51827;51.186;6.926;2023-05-10T05:48:40;21.93;58.50
65239;SHT30;51827;51.186;6.926;2023-05-10T05:49:40;21.93;58.49
65239;SHT30;51827;51.186;6.926;2023-05-10T05:50:40;21.94;58.47
65239;SHT30;51827;51.186;6.926;2023-05-10T05:51:40;21.93;58.54
65239;SHT30;51827;51.186;6.926;2023-05-10T05:52:41;21.91;58.53
65239;SHT30;51827;51.186;6.926;2023-05-10T05:53:41;21.90;58.47
65239;SHT30;51827;51.186;6.926;2023-05-10T05:54:41;21.94;58.50
65239;SHT30;51827;51.186;6.926;2023-05-10T05:55:50;21.93;58.50
65239;SHT30;51827;51.186;6.926;2023-05-10T05:56:53;21.93;58.46
65239;SHT30;51827;51.186;6.926;2023-05-10T05:57:53;21.91;58.47
65239;SHT30;51827;51.186;6.926;2023-05-10T05:58:53;21.93;58.49
65239;SHT30;51827;51.186;6.926;2023-05-10T05:59:53;21.91;58.46
65239;SHT30;51827;51.186;6.926;2023-05-10T06:00:53;21.90;58.45
65239;SHT30;51827;51.186;6.926;2023-05-10T06:01:54;21.93;58.48
65239;SHT30;51827;51.186;6.926;2023-05-10T06:02:54;21.91;58.47
65239;SHT30;51827;51.186;6.926;2023-05-10T06:03:54;21.93;58.47
65239;SHT30;51827;51.186;6.926;2023-05-10T06:04:54;21.93;58.46
65239;SHT30;51827;51.186;6.926;2023-05-10T06:05:54;21.93;58.43
65239;SHT30;51827;51.186;6.926;2023-05-10T06:06:54;21.91;58.42
65239;SHT30;51827;51.186;6.926;2023-05-10T06:07:55;21.91;58.42
65239;SHT30;51827;51.186;6.926;2023-05-10T06:08:55;21.93;58.47
65239;SHT30;51827;51.186;6.926;2023-05-10T06:09:55;21.91;58.40
65239;SHT30;51827;51.186;6.926;2023-05-10T06:10:55;21.93;58.43
65239;SHT30;51827;51.186;6.926;2023-05-10T06:11:55;21.91;58.44
65239;SHT30;51827;51.186;6.926;2023-05-10T06:12:55;21.91;58.39
65239;SHT30;51827;51.186;6.926;2023-05-10T06:13:56;21.91;58.40
65239;SHT30;51827;51.186;6.926;2023-05-10T06:14:56;21.90;58.43
65239;SHT30;51827;51.186;6.926;2023-05-10T06:15:56;21.90;58.40
65239;SHT30;51827;51.186;6.926;2023-05-10T06:16:56;21.90;58.44
65239;SHT30;51827;51.186;6.926;2023-05-10T06:17:56;21.93;58.39
65239;SHT30;51827;51.186;6.926;2023-05-10T06:18:56;21.91;58.46
65239;SHT30;51827;51.186;6.926;2023-05-10T06:19:57;21.91;58.41
65239;SHT30;51827;51.186;6.926;2023-05-10T06:20:57;21.93;58.40
65239;SHT30;51827;51.186;6.926;2023-05-10T06:21:57;21.91;58.38
65239;SHT30;51827;51.186;6.926;2023-05-10T06:22:57;21.90;58.38
65239;SHT30;51827;51.186;6.926;2023-05-10T06:23:57;21.91;58.34
65239;SHT30;51827;51.186;6.926;2023-05-10T06:24:58;21.91;58.39
65239;SHT30;51827;51.186;6.926;2023-05-10T06:25:58;21.91;58.36
65239;SHT30;51827;51.186;6.926;2023-05-10T06:26:58;21.90;58.36
65239;SHT30;51827;51.186;6.926;2023-05-10T06:27:58;21.91;58.36
65239;SHT30;51827;51.186;6.926;2023-05-10T06:28:58;21.89;58.38
65239;SHT30;51827;51.186;6.926;2023-05-10T06:29:58;21.91;58.35
65239;SHT30;51827;51.186;6.926;2023-05-10T06:30:59;21.91;58.39
65239;SHT30;51827;51.186;6.926;2023-05-10T06:31:59;21.93;58.34
65239;SHT30;51827;51.186;6.926;2023-05-10T06:32:59;21.91;58.36
65239;SHT30;51827;51.186;6.926;2023-05-10T06:33:59;21.90;58.38
65239;SHT30;51827;51.186;6.926;2023-05-10T06:35:00;21.90;58.39
65239;SHT30;51827;51.186;6.926;2023-05-10T06:36:00;21.93;58.37
65239;SHT30;51827;51.186;6.926;2023-05-10T06:37:00;21.90;58.33
65239;SHT30;51827;51.186;6.926;2023-05-10T06:38:00;21.91;58.35
65239;SHT30;51827;51.186;6.926;2023-05-10T06:39:00;21.89;58.34
65239;SHT30;51827;51.186;6.926;2023-05-10T06:40:00;21.91;58.32